Terminal Aerodrome Forecast
Issued by NWS

Home | Current Version | Previous Version | Text Only | Print | Product List | Glossary Off
Versions: 1 2 3 4 5 6 7 8 9 10 11 12 13 14 15 16 17 18 19 20

713
FTUS43 KMPX 222332
TAFAXN
TAF
KAXN 222332Z 2300/2324 31008KT 1SM BR OVC002
     FM230600 29005KT 1/2SM FG VV002
     FM231400 29005KT 2SM BR OVC004
     FM231600 27005KT 4SM BR OVC008
     FM232100 26004KT 6SM BR OVC012=

USA.gov is the U.S. government's official web portal to all federal, state and local government web resources and services.